Time;durP1;ratioP1;P1;durP2;ratioP2;P2;SDS_P1;SDS_P2;PMS_P1;PMS_P2;Temp;Humidity;BMP_temperature;BMP_pressure;BME280_temperature;BME280_humidity;BME280_pressure;Samples;Min_cycle;Max_cycle;Signal;HPM_P1;HPM_P2
2023/09/29 00:00:54;;;;;;;25.10;5.95;;;16.20;99.90;;;;;;4941668;28;20223;-58
2023/09/29 00:03:19;;;;;;;16.20;5.40;;;16.20;99.90;;;;;;4954623;28;20087;-60
2023/09/29 00:05:46;;;;;;;27.63;6.07;;;16.20;99.90;;;;;;4948953;28;20061;-59
2023/09/29 00:08:16;;;;;;;19.98;5.65;;;16.20;99.90;;;;;;4938754;28;20047;-59
2023/09/29 00:10:45;;;;;;;20.83;5.35;;;16.20;99.90;;;;;;4947750;28;20783;-59
2023/09/29 00:13:11;;;;;;;24.55;5.43;;;16.20;99.90;;;;;;4943593;28;20054;-59
2023/09/29 00:15:38;;;;;;;21.98;5.47;;;16.20;99.90;;;;;;4925783;28;20078;-59
2023/09/29 00:18:07;;;;;;;17.25;5.13;;;16.20;99.90;;;;;;4939041;28;20523;-60
2023/09/29 00:20:36;;;;;;;19.60;5.28;;;16.20;99.90;;;;;;4954363;28;20054;-59
2023/09/29 00:23:02;;;;;;;18.15;5.65;;;16.20;99.90;;;;;;4963405;28;20288;-59
2023/09/29 00:25:28;;;;;;;23.20;5.97;;;16.20;99.90;;;;;;4951505;28;20035;-59
2023/09/29 00:27:56;;;;;;;22.92;6.07;;;16.20;99.90;;;;;;4957086;28;20050;-59
2023/09/29 00:30:22;;;;;;;21.02;5.28;;;16.20;99.90;;;;;;4958149;28;20041;-60
2023/09/29 00:32:50;;;;;;;17.58;5.28;;;16.20;99.90;;;;;;4945702;28;20476;-59
2023/09/29 00:37:47;;;;;;;22.10;5.40;;;16.20;99.90;;;;;;4937250;28;20550;-58
2023/09/29 00:40:14;;;;;;;17.77;4.70;;;16.20;99.90;;;;;;4912015;28;20043;-60
2023/09/29 00:42:41;;;;;;;20.75;5.18;;;16.20;99.90;;;;;;4946407;28;20633;-59
2023/09/29 00:45:08;;;;;;;15.65;5.05;;;16.20;99.90;;;;;;4969944;28;20142;-58
2023/09/29 00:47:36;;;;;;;18.63;5.03;;;16.20;99.90;;;;;;4960040;28;20514;-60
2023/09/29 00:50:05;;;;;;;15.20;4.53;;;16.20;99.90;;;;;;4953076;28;20514;-60
2023/09/29 00:52:32;;;;;;;18.25;4.85;;;16.20;99.90;;;;;;4949122;28;20030;-60
2023/09/29 00:54:58;;;;;;;22.42;5.20;;;16.10;99.90;;;;;;4955620;28;20038;-60
2023/09/29 00:57:24;;;;;;;19.08;5.22;;;16.20;99.90;;;;;;4944811;28;20118;-57
2023/09/29 00:59:51;;;;;;;21.23;5.18;;;16.10;99.90;;;;;;4946972;28;20097;-60
2023/09/29 01:02:18;;;;;;;15.68;5.00;;;16.10;99.90;;;;;;4957149;28;20449;-59
2023/09/29 01:04:48;;;;;;;18.90;5.47;;;16.10;99.90;;;;;;4949276;28;20047;-60
2023/09/29 01:07:15;;;;;;;19.98;4.88;;;16.10;99.90;;;;;;4948726;28;20051;-60
2023/09/29 01:09:41;;;;;;;16.60;4.78;;;16.10;99.90;;;;;;4950747;28;20050;-60
2023/09/29 01:12:10;;;;;;;17.08;4.75;;;16.10;99.90;;;;;;4942345;28;20039;-58
2023/09/29 01:14:36;;;;;;;15.93;4.93;;;16.10;99.90;;;;;;4926072;29;20051;-58
2023/09/29 01:17:01;;;;;;;21.23;5.53;;;16.10;99.90;;;;;;4946042;28;20431;-59
2023/09/29 01:19:27;;;;;;;22.13;5.10;;;16.10;99.90;;;;;;4944701;28;20043;-59
2023/09/29 01:21:53;;;;;;;19.77;5.03;;;16.10;99.90;;;;;;4958572;28;20162;-61
2023/09/29 01:24:21;;;;;;;20.23;5.05;;;16.10;99.90;;;;;;4915884;28;20130;-60
2023/09/29 01:26:47;;;;;;;15.90;5.20;;;16.10;99.90;;;;;;4951618;28;20125;-60
2023/09/29 01:29:12;;;;;;;17.75;4.88;;;16.10;99.90;;;;;;4925742;28;20097;-59
2023/09/29 01:31:39;;;;;;;20.83;5.65;;;16.00;99.90;;;;;;4952452;28;20039;-60
2023/09/29 01:34:05;;;;;;;19.92;4.85;;;16.00;99.90;;;;;;4954431;28;21066;-59
2023/09/29 01:36:31;;;;;;;19.65;5.93;;;16.00;99.90;;;;;;4958609;28;20053;-60
2023/09/29 01:38:57;;;;;;;28.58;6.05;;;16.00;99.90;;;;;;4943720;28;20036;-59
2023/09/29 01:41:24;;;;;;;21.77;5.72;;;16.00;99.90;;;;;;4959735;28;20090;-60
2023/09/29 01:43:50;;;;;;;19.58;5.55;;;16.00;99.90;;;;;;4959400;28;20042;-59
2023/09/29 01:46:16;;;;;;;18.88;5.57;;;16.00;99.90;;;;;;4941699;28;20126;-59
2023/09/29 01:48:42;;;;;;;18.42;5.07;;;16.00;99.90;;;;;;4926403;28;20054;-59
2023/09/29 01:51:08;;;;;;;23.10;5.43;;;16.00;99.90;;;;;;4968133;28;20552;-60
2023/09/29 01:53:34;;;;;;;19.27;5.57;;;16.00;99.90;;;;;;4953401;28;20038;-59
2023/09/29 01:56:01;;;;;;;19.17;5.53;;;16.00;99.90;;;;;;4948978;28;20133;-60
2023/09/29 01:58:27;;;;;;;19.08;5.05;;;16.00;99.90;;;;;;4951378;28;20070;-59
2023/09/29 02:00:54;;;;;;;19.98;6.18;;;16.00;99.90;;;;;;4941153;28;20109;-59
2023/09/29 02:03:21;;;;;;;17.20;5.40;;;16.00;99.90;;;;;;4944662;28;20472;-59
2023/09/29 02:05:47;;;;;;;16.33;4.97;;;16.00;99.90;;;;;;4957409;28;20506;-60
2023/09/29 02:08:13;;;;;;;17.45;4.80;;;16.00;99.90;;;;;;4951136;28;20057;-60
2023/09/29 02:10:39;;;;;;;18.45;5.45;;;16.00;99.90;;;;;;4926069;28;20086;-59
2023/09/29 02:13:04;;;;;;;23.02;5.28;;;16.00;99.90;;;;;;4949136;28;20042;-60
2023/09/29 02:15:34;;;;;;;19.42;5.70;;;15.90;99.90;;;;;;4955152;28;20551;-60
2023/09/29 02:18:04;;;;;;;21.90;5.28;;;16.00;99.90;;;;;;4941087;28;20047;-60
2023/09/29 02:20:30;;;;;;;18.85;5.30;;;16.00;99.90;;;;;;4955413;28;20086;-59
2023/09/29 02:22:57;;;;;;;23.90;5.70;;;16.00;99.90;;;;;;4939923;28;20093;-59
2023/09/29 02:25:26;;;;;;;20.55;5.90;;;16.00;99.90;;;;;;4955335;28;20494;-60
2023/09/29 02:27:54;;;;;;;22.02;5.30;;;16.00;99.90;;;;;;4936932;28;20073;-59
2023/09/29 02:30:20;;;;;;;23.30;6.10;;;16.00;99.90;;;;;;4953449;28;20047;-60
2023/09/29 02:32:45;;;;;;;19.70;5.68;;;16.00;99.90;;;;;;4956713;28;20030;-60
2023/09/29 02:35:11;;;;;;;17.05;5.15;;;16.00;99.90;;;;;;4931524;28;20042;-58
2023/09/29 02:37:38;;;;;;;17.70;4.80;;;16.00;99.90;;;;;;4896158;28;20104;-60
2023/09/29 02:40:15;;;;;;;15.75;4.85;;;16.00;99.90;;;;;;4945547;28;20459;-59
2023/09/29 02:42:43;;;;;;;24.30;5.15;;;16.00;99.90;;;;;;4950908;28;20558;-60
2023/09/29 02:45:08;;;;;;;20.23;5.22;;;16.10;99.90;;;;;;4947730;28;20518;-59
2023/09/29 02:47:42;;;;;;;17.00;5.47;;;16.00;99.90;;;;;;4958443;28;20039;-60
2023/09/29 02:50:09;;;;;;;23.33;5.63;;;16.00;99.90;;;;;;4950651;28;20539;-60
2023/09/29 02:52:37;;;;;;;16.92;5.32;;;16.00;99.90;;;;;;4935824;28;20431;-60
2023/09/29 02:55:04;;;;;;;15.52;5.10;;;16.00;99.90;;;;;;4952850;28;20101;-59
2023/09/29 02:57:30;;;;;;;17.73;5.82;;;16.00;99.90;;;;;;4953961;28;20377;-59
2023/09/29 02:59:57;;;;;;;17.73;5.15;;;16.00;99.90;;;;;;4930601;28;20307;-59
2023/09/29 03:02:23;;;;;;;20.75;5.25;;;16.00;99.90;;;;;;4945581;28;20057;-60
2023/09/29 03:04:51;;;;;;;26.67;5.93;;;16.00;99.90;;;;;;4967075;28;20043;-60
2023/09/29 03:07:17;;;;;;;27.63;6.30;;;16.00;99.90;;;;;;4947948;28;20043;-58
2023/09/29 03:09:43;;;;;;;17.48;4.68;;;16.00;99.90;;;;;;4931174;28;20399;-59
2023/09/29 03:12:09;;;;;;;15.38;4.35;;;16.00;99.90;;;;;;4936055;28;20166;-58
2023/09/29 03:14:35;;;;;;;21.95;4.97;;;16.10;99.90;;;;;;4950636;28;20047;-58
2023/09/29 03:17:01;;;;;;;19.27;5.10;;;16.00;99.90;;;;;;4906455;28;20206;-60
2023/09/29 03:19:27;;;;;;;18.80;4.75;;;16.10;99.90;;;;;;4939724;28;20440;-60
2023/09/29 03:21:53;;;;;;;16.70;4.65;;;16.00;99.90;;;;;;4921479;28;20058;-59
2023/09/29 03:24:19;;;;;;;17.80;4.65;;;16.00;99.90;;;;;;4932551;28;20420;-59
2023/09/29 03:26:47;;;;;;;17.65;3.80;;;16.00;99.90;;;;;;4944720;28;25922;-59
2023/09/29 03:29:13;;;;;;;17.27;4.47;;;16.00;99.90;;;;;;4933256;28;20047;-60
2023/09/29 03:31:39;;;;;;;14.55;4.47;;;16.00;99.90;;;;;;4955128;28;20553;-59
2023/09/29 03:34:04;;;;;;;18.70;4.82;;;16.00;99.90;;;;;;4937989;28;20050;-60
2023/09/29 03:36:30;;;;;;;19.42;4.55;;;16.00;99.90;;;;;;4944050;28;20097;-59
2023/09/29 03:38:56;;;;;;;18.33;4.18;;;16.00;99.90;;;;;;4956853;28;20502;-60
2023/09/29 03:41:25;;;;;;;20.48;5.60;;;16.10;99.90;;;;;;4948246;28;20049;-59
2023/09/29 03:43:52;;;;;;;21.80;4.97;;;16.10;99.90;;;;;;4946752;28;20104;-59
2023/09/29 03:46:21;;;;;;;16.75;4.32;;;16.10;99.90;;;;;;4952364;28;20046;-59
2023/09/29 03:48:47;;;;;;;14.82;4.45;;;16.10;99.90;;;;;;4944016;28;20035;-60
2023/09/29 03:51:25;;;;;;;20.25;5.30;;;16.10;99.90;;;;;;4943882;28;20077;-59
2023/09/29 03:53:52;;;;;;;18.85;4.63;;;16.20;99.90;;;;;;4954454;28;20046;-59
2023/09/29 03:56:22;;;;;;;15.82;4.40;;;16.20;99.90;;;;;;4954399;28;20144;-58
2023/09/29 03:58:53;;;;;;;13.32;4.38;;;16.20;99.90;;;;;;4951675;28;20035;-59
2023/09/29 04:01:19;;;;;;;22.52;5.68;;;16.30;99.90;;;;;;4950393;28;20387;-60
2023/09/29 04:03:45;;;;;;;14.38;4.35;;;16.30;99.90;;;;;;4931709;28;20035;-59
2023/09/29 04:06:11;;;;;;;16.65;5.00;;;16.30;99.90;;;;;;4948987;28;20047;-59
2023/09/29 04:08:38;;;;;;;18.58;5.00;;;16.30;99.90;;;;;;4928001;28;20039;-58
2023/09/29 04:11:04;;;;;;;19.88;5.03;;;16.40;99.90;;;;;;4957982;28;20518;-60
2023/09/29 04:13:30;;;;;;;17.85;4.97;;;16.40;99.90;;;;;;4915496;29;20047;-60
2023/09/29 04:15:55;;;;;;;20.40;4.95;;;16.40;99.90;;;;;;4942664;28;20043;-59
2023/09/29 04:18:21;;;;;;;18.60;5.20;;;16.40;99.90;;;;;;4948737;28;20454;-60
2023/09/29 04:20:47;;;;;;;16.33;5.07;;;16.40;99.90;;;;;;4954464;28;20086;-60
2023/09/29 04:23:13;;;;;;;15.68;5.00;;;16.40;99.90;;;;;;4936068;28;20136;-59
2023/09/29 04:25:38;;;;;;;15.57;5.18;;;16.40;99.90;;;;;;4956717;28;20121;-59
2023/09/29 04:28:04;;;;;;;18.50;4.97;;;16.40;99.90;;;;;;4945399;28;20038;-58
2023/09/29 04:30:30;;;;;;;15.20;4.88;;;16.40;99.90;;;;;;4935345;28;20047;-60
2023/09/29 04:32:56;;;;;;;18.38;5.45;;;16.40;99.90;;;;;;4937386;28;20120;-59
2023/09/29 04:35:21;;;;;;;16.75;5.07;;;16.40;99.90;;;;;;4952205;28;20046;-60
2023/09/29 04:37:49;;;;;;;17.15;4.95;;;16.50;99.90;;;;;;4928383;28;20161;-59
2023/09/29 04:40:15;;;;;;;17.77;5.32;;;16.50;99.90;;;;;;4956866;28;20161;-60
2023/09/29 04:42:41;;;;;;;18.55;4.75;;;16.50;99.90;;;;;;4947179;28;20436;-60
2023/09/29 04:45:08;;;;;;;20.20;5.20;;;16.50;99.90;;;;;;4954396;28;20050;-59
2023/09/29 04:47:34;;;;;;;15.30;4.88;;;16.40;99.90;;;;;;4955049;28;20047;-60
2023/09/29 04:49:59;;;;;;;20.65;5.22;;;16.50;99.90;;;;;;4932500;28;20049;-59
2023/09/29 04:52:26;;;;;;;16.70;4.72;;;16.50;99.90;;;;;;4959526;28;20050;-59
2023/09/29 04:54:52;;;;;;;12.88;4.68;;;16.50;99.90;;;;;;4947764;28;20070;-59
2023/09/29 04:57:18;;;;;;;15.48;5.03;;;16.50;99.90;;;;;;4938161;28;20042;-59
2023/09/29 04:59:44;;;;;;;17.15;5.45;;;16.60;99.90;;;;;;4947069;28;20503;-60
2023/09/29 05:02:10;;;;;;;22.33;5.35;;;16.60;99.90;;;;;;4955295;28;20171;-58
2023/09/29 05:04:36;;;;;;;19.77;4.90;;;16.60;99.90;;;;;;4949387;28;20046;-59
2023/09/29 05:07:01;;;;;;;18.67;5.53;;;16.60;99.90;;;;;;4939328;28;20057;-59
2023/09/29 05:09:27;;;;;;;18.95;5.55;;;16.50;99.90;;;;;;4962496;28;20557;-60
2023/09/29 05:11:53;;;;;;;16.13;4.88;;;16.60;99.90;;;;;;4941899;28;20042;-58
2023/09/29 05:14:19;;;;;;;15.07;4.68;;;16.50;99.90;;;;;;4956246;28;20053;-60
2023/09/29 05:16:44;;;;;;;14.77;4.93;;;16.50;99.90;;;;;;4943358;28;20884;-60
2023/09/29 05:19:10;;;;;;;20.25;5.85;;;16.60;99.90;;;;;;4944168;28;20054;-60
2023/09/29 05:21:36;;;;;;;14.23;4.68;;;16.60;99.90;;;;;;4934986;28;20091;-60
2023/09/29 05:24:02;;;;;;;18.90;4.72;;;16.50;99.90;;;;;;4938465;28;20131;-59
2023/09/29 05:26:28;;;;;;;19.05;5.47;;;16.60;99.90;;;;;;4936884;28;20054;-59
2023/09/29 05:28:55;;;;;;;26.98;5.38;;;16.60;99.90;;;;;;4965153;28;20038;-59
2023/09/29 05:31:21;;;;;;;15.82;5.45;;;16.60;99.90;;;;;;4944908;28;20129;-60
2023/09/29 05:33:47;;;;;;;20.80;5.60;;;16.60;99.90;;;;;;4940781;28;20077;-60
2023/09/29 05:36:12;;;;;;;19.15;5.32;;;16.60;99.90;;;;;;4963676;28;20482;-59
2023/09/29 05:38:38;;;;;;;25.55;5.57;;;16.60;99.90;;;;;;4942565;28;20622;-60
2023/09/29 05:41:04;;;;;;;12.48;5.10;;;16.70;99.90;;;;;;4931555;28;20042;-59
2023/09/29 05:43:30;;;;;;;14.93;5.57;;;16.60;99.90;;;;;;4944692;28;20055;-60
2023/09/29 05:45:56;;;;;;;22.45;5.78;;;16.60;99.90;;;;;;4956942;28;20406;-59
2023/09/29 05:48:21;;;;;;;18.65;5.50;;;16.60;99.90;;;;;;4939314;28;20039;-60
2023/09/29 05:50:49;;;;;;;16.48;5.45;;;16.60;99.90;;;;;;4952440;28;20043;-58
2023/09/29 05:53:15;;;;;;;16.83;5.55;;;16.60;99.90;;;;;;4947901;28;20463;-59
2023/09/29 05:55:41;;;;;;;18.13;5.28;;;16.60;99.90;;;;;;4947320;28;20042;-59
2023/09/29 05:58:07;;;;;;;16.88;5.60;;;16.60;99.90;;;;;;4959206;28;20039;-58
2023/09/29 06:00:33;;;;;;;17.35;6.30;;;16.60;99.90;;;;;;4953788;28;20439;-58
2023/09/29 06:02:59;;;;;;;15.40;5.47;;;16.60;99.90;;;;;;4958909;28;20057;-60
2023/09/29 06:05:26;;;;;;;12.95;5.20;;;16.60;99.90;;;;;;4932150;28;20058;-59
2023/09/29 06:07:52;;;;;;;14.07;5.18;;;16.60;99.90;;;;;;4931050;28;20045;-59
2023/09/29 06:10:18;;;;;;;16.17;5.40;;;16.60;99.90;;;;;;4939816;28;20043;-58
2023/09/29 06:12:44;;;;;;;15.05;5.25;;;16.70;99.90;;;;;;4947729;28;20626;-58
2023/09/29 06:15:10;;;;;;;18.45;5.60;;;16.70;99.90;;;;;;4957193;28;20101;-59
2023/09/29 06:17:36;;;;;;;12.75;5.20;;;16.70;99.90;;;;;;4946064;28;20101;-59
2023/09/29 06:20:03;;;;;;;10.77;5.45;;;16.70;99.90;;;;;;4938349;28;20118;-59
2023/09/29 06:22:29;;;;;;;16.40;5.75;;;16.70;99.90;;;;;;4946782;28;20054;-60
2023/09/29 06:24:55;;;;;;;17.63;6.07;;;16.70;99.90;;;;;;4958971;28;20372;-58
2023/09/29 06:27:20;;;;;;;22.65;6.20;;;16.70;99.90;;;;;;4914027;28;20222;-58
2023/09/29 06:29:50;;;;;;;14.73;5.05;;;16.70;99.90;;;;;;4932341;28;20066;-58
2023/09/29 06:32:19;;;;;;;13.02;5.40;;;16.80;99.90;;;;;;4942092;28;20696;-58
2023/09/29 06:34:45;;;;;;;14.48;5.07;;;16.80;99.90;;;;;;4942848;28;20105;-58
2023/09/29 06:37:11;;;;;;;11.27;4.80;;;16.80;99.90;;;;;;4930327;28;20582;-59
2023/09/29 06:39:37;;;;;;;15.23;5.57;;;16.80;99.90;;;;;;4942612;28;20044;-59
2023/09/29 06:42:04;;;;;;;13.00;5.55;;;16.80;99.90;;;;;;4952491;28;20906;-58
2023/09/29 06:44:32;;;;;;;13.15;5.22;;;16.80;99.90;;;;;;4946150;28;20652;-58
2023/09/29 06:46:58;;;;;;;15.43;5.15;;;16.80;99.90;;;;;;4951494;28;20109;-59
2023/09/29 06:49:24;;;;;;;13.98;5.13;;;16.70;99.90;;;;;;4953588;28;20456;-59
2023/09/29 06:51:50;;;;;;;16.35;5.40;;;16.90;99.90;;;;;;4940818;28;20548;-60
2023/09/29 06:54:16;;;;;;;16.40;5.40;;;16.90;99.90;;;;;;4944264;28;20134;-58
2023/09/29 06:56:41;;;;;;;14.65;5.43;;;16.90;99.90;;;;;;4949683;28;20085;-59
2023/09/29 06:59:11;;;;;;;13.02;5.00;;;17.10;99.90;;;;;;4945689;28;20057;-59
2023/09/29 07:01:37;;;;;;;19.95;5.38;;;17.00;99.90;;;;;;4939125;28;20035;-58
2023/09/29 07:04:04;;;;;;;13.82;5.47;;;17.10;99.90;;;;;;4940657;28;20078;-59
2023/09/29 07:06:30;;;;;;;14.32;5.28;;;17.10;99.90;;;;;;4940368;28;20042;-58
2023/09/29 07:08:56;;;;;;;19.95;5.28;;;17.10;99.90;;;;;;4942586;28;20128;-58
2023/09/29 07:11:21;;;;;;;16.42;5.78;;;17.20;99.90;;;;;;4934177;28;20051;-59
2023/09/29 07:13:47;;;;;;;13.40;5.70;;;17.20;99.90;;;;;;4941927;28;20739;-59
2023/09/29 07:16:13;;;;;;;13.48;5.45;;;17.30;99.90;;;;;;4939743;28;20521;-58
2023/09/29 07:18:41;;;;;;;19.25;5.70;;;17.30;99.90;;;;;;4947347;28;20062;-58
2023/09/29 07:21:06;;;;;;;15.38;5.50;;;17.30;99.90;;;;;;4953274;28;20507;-59
2023/09/29 07:23:34;;;;;;;9.95;5.05;;;17.40;99.90;;;;;;4942695;28;20117;-59
2023/09/29 07:26:00;;;;;;;12.30;5.80;;;17.40;99.90;;;;;;4937553;28;20062;-58
2023/09/29 07:28:25;;;;;;;13.93;5.65;;;17.50;99.90;;;;;;4935116;28;20126;-60
2023/09/29 07:30:51;;;;;;;14.05;5.35;;;17.50;99.90;;;;;;4933039;28;20101;-59
2023/09/29 07:33:17;;;;;;;12.60;5.25;;;17.60;99.90;;;;;;4940544;28;20045;-58
2023/09/29 07:35:44;;;;;;;10.50;5.00;;;17.60;99.90;;;;;;4934578;28;20043;-60
2023/09/29 07:38:10;;;;;;;13.82;5.10;;;17.60;99.90;;;;;;4935248;28;20522;-59
2023/09/29 07:40:36;;;;;;;14.45;5.38;;;17.60;99.90;;;;;;4935404;28;20458;-57
2023/09/29 07:43:06;;;;;;;13.13;5.57;;;17.70;99.90;;;;;;4929061;28;20047;-59
2023/09/29 07:45:32;;;;;;;15.38;5.57;;;17.80;99.90;;;;;;4938597;28;20101;-60
2023/09/29 07:47:58;;;;;;;10.60;5.00;;;17.90;99.90;;;;;;4947960;28;20042;-59
2023/09/29 07:50:24;;;;;;;16.77;5.55;;;17.90;99.90;;;;;;4948674;28;20043;-59
2023/09/29 07:52:50;;;;;;;10.95;4.57;;;18.00;99.90;;;;;;4911654;28;20617;-59
2023/09/29 07:55:15;;;;;;;10.85;4.70;;;18.00;99.90;;;;;;4939071;28;20043;-59
2023/09/29 07:57:41;;;;;;;11.50;4.53;;;18.00;99.90;;;;;;4949901;28;20451;-58
2023/09/29 08:00:12;;;;;;;9.82;4.78;;;18.10;99.90;;;;;;4915922;28;20051;-60
2023/09/29 08:02:39;;;;;;;11.25;4.55;;;18.20;99.90;;;;;;4960510;28;20543;-59
2023/09/29 08:05:06;;;;;;;6.88;4.18;;;18.30;99.90;;;;;;4954816;28;20113;-59
2023/09/29 08:07:32;;;;;;;13.45;4.50;;;18.40;99.90;;;;;;4953204;28;20087;-58
2023/09/29 08:09:58;;;;;;;9.85;3.88;;;18.50;99.90;;;;;;4954590;28;20589;-60
2023/09/29 08:12:24;;;;;;;9.32;4.07;;;18.60;99.90;;;;;;4940107;28;20101;-60
2023/09/29 08:14:50;;;;;;;13.15;4.65;;;18.60;99.90;;;;;;4952604;28;20050;-60
2023/09/29 08:17:18;;;;;;;8.43;3.58;;;18.70;99.90;;;;;;4949757;28;20050;-58
2023/09/29 08:19:45;;;;;;;10.10;4.13;;;18.80;99.90;;;;;;4955695;28;20490;-60
2023/09/29 08:22:11;;;;;;;7.82;4.00;;;18.90;99.90;;;;;;4944338;28;20097;-59
2023/09/29 08:24:36;;;;;;;11.95;4.18;;;19.00;99.90;;;;;;4965562;28;20054;-59
2023/09/29 08:27:02;;;;;;;7.70;3.65;;;19.00;99.90;;;;;;4944932;28;20134;-59
2023/09/29 08:29:28;;;;;;;7.60;3.88;;;19.10;99.90;;;;;;4958673;28;20051;-58
2023/09/29 08:31:55;;;;;;;10.40;4.05;;;19.10;99.90;;;;;;4937481;28;20047;-59
2023/09/29 08:34:21;;;;;;;7.25;3.65;;;19.20;99.90;;;;;;4956158;28;20049;-59
2023/09/29 08:36:46;;;;;;;9.25;3.88;;;19.20;99.90;;;;;;4962744;28;20039;-59
2023/09/29 08:39:12;;;;;;;10.18;4.00;;;19.30;99.90;;;;;;4957886;28;20039;-59
2023/09/29 08:41:48;;;;;;;6.70;3.88;;;19.40;99.90;;;;;;4940709;28;20054;-60
2023/09/29 08:44:18;;;;;;;6.72;3.47;;;19.40;99.90;;;;;;4961741;28;20038;-59
2023/09/29 08:46:47;;;;;;;10.02;3.67;;;19.50;99.90;;;;;;4937051;28;20049;-59
2023/09/29 08:49:16;;;;;;;6.88;3.80;;;19.60;99.90;;;;;;4939912;28;20059;-59
2023/09/29 08:51:46;;;;;;;9.82;3.83;;;19.70;99.90;;;;;;4940048;28;21417;-59
2023/09/29 08:54:14;;;;;;;14.98;3.92;;;19.70;99.90;;;;;;4959299;28;20042;-60
2023/09/29 08:56:40;;;;;;;9.45;3.70;;;19.80;99.90;;;;;;4951025;28;20055;-59
2023/09/29 08:59:06;;;;;;;10.88;3.47;;;19.80;99.90;;;;;;4947971;28;20043;-59
2023/09/29 09:01:32;;;;;;;8.40;4.90;;;19.90;99.90;;;;;;4961046;28;20051;-60
2023/09/29 09:03:58;;;;;;;7.85;3.92;;;20.00;99.90;;;;;;4960944;28;20092;-60
2023/09/29 09:06:26;;;;;;;7.38;4.78;;;20.00;99.90;;;;;;4960680;28;20070;-59
2023/09/29 09:08:53;;;;;;;9.52;4.60;;;20.10;99.90;;;;;;4960843;28;20580;-59
2023/09/29 09:11:19;;;;;;;11.35;4.88;;;20.10;99.90;;;;;;4953809;28;20046;-60
2023/09/29 09:13:59;;;;;;;9.13;4.53;;;20.10;99.90;;;;;;4958503;28;20047;-60
2023/09/29 09:16:26;;;;;;;9.50;4.63;;;20.10;99.90;;;;;;4956749;28;20672;-58
2023/09/29 09:18:53;;;;;;;10.07;4.95;;;20.10;99.90;;;;;;4931127;28;20058;-59
2023/09/29 09:21:19;;;;;;;8.65;4.32;;;20.20;99.90;;;;;;4951347;28;20063;-60
2023/09/29 09:23:45;;;;;;;7.28;4.20;;;20.20;99.90;;;;;;4952326;28;20078;-60
2023/09/29 09:26:16;;;;;;;7.72;3.78;;;20.30;99.90;;;;;;4954329;28;20126;-60
2023/09/29 09:28:42;;;;;;;9.50;4.55;;;20.40;99.90;;;;;;4952994;28;20517;-60
2023/09/29 09:31:08;;;;;;;11.65;5.32;;;20.60;99.90;;;;;;4968442;28;20039;-58
2023/09/29 09:33:34;;;;;;;8.90;4.50;;;20.70;99.90;;;;;;4955095;28;20526;-58
2023/09/29 09:36:10;;;;;;;7.78;4.00;;;20.80;99.90;;;;;;4937579;28;20850;-59
2023/09/29 09:38:37;;;;;;;7.78;3.58;;;20.80;99.90;;;;;;4954235;28;20064;-59
2023/09/29 09:41:04;;;;;;;8.88;3.70;;;20.70;99.90;;;;;;4958051;28;20046;-58
2023/09/29 09:43:34;;;;;;;8.60;3.13;;;20.80;99.90;;;;;;4958649;28;20130;-59
2023/09/29 09:46:06;;;;;;;7.20;3.47;;;20.70;99.90;;;;;;4951492;28;20082;-58
2023/09/29 09:48:43;;;;;;;9.87;3.40;;;20.80;99.90;;;;;;4937858;28;20150;-59
2023/09/29 09:51:12;;;;;;;6.90;3.22;;;20.90;99.90;;;;;;4955886;28;20031;-59
2023/09/29 09:53:38;;;;;;;8.27;3.95;;;20.90;99.90;;;;;;4954581;28;20046;-58
2023/09/29 09:56:14;;;;;;;7.38;3.40;;;20.90;99.90;;;;;;4954132;28;20130;-59
2023/09/29 09:58:42;;;;;;;7.72;3.45;;;20.90;99.90;;;;;;4927093;28;20043;-59
2023/09/29 10:01:10;;;;;;;10.18;3.88;;;20.90;99.90;;;;;;4954502;28;20121;-58
2023/09/29 10:03:38;;;;;;;12.80;3.92;;;20.90;99.90;;;;;;4950537;28;20258;-60
2023/09/29 10:06:05;;;;;;;7.38;3.75;;;20.90;99.90;;;;;;4951383;28;20042;-60
2023/09/29 10:08:31;;;;;;;6.50;3.63;;;20.90;99.90;;;;;;4951402;28;20495;-58
2023/09/29 10:11:14;;;;;;;9.40;3.78;;;20.90;99.90;;;;;;4954427;28;20051;-60
2023/09/29 10:13:42;;;;;;;8.65;3.90;;;20.90;99.90;;;;;;4945316;28;20055;-58
2023/09/29 10:16:08;;;;;;;10.40;3.65;;;21.00;99.90;;;;;;4949404;28;20093;-58
2023/09/29 10:18:35;;;;;;;6.70;3.67;;;21.10;99.90;;;;;;4951437;28;20103;-59
2023/09/29 10:21:09;;;;;;;12.35;4.43;;;21.10;99.90;;;;;;4948835;28;20611;-60
2023/09/29 10:23:53;;;;;;;6.95;3.78;;;21.20;99.90;;;;;;4947955;28;20054;-60
2023/09/29 10:26:20;;;;;;;8.45;4.30;;;21.30;99.90;;;;;;4951287;28;20043;-58
2023/09/29 10:28:46;;;;;;;9.43;4.38;;;21.40;99.90;;;;;;4952052;28;20094;-59
2023/09/29 10:31:27;;;;;;;8.20;3.83;;;21.40;99.90;;;;;;4959278;28;20046;-58
2023/09/29 10:33:58;;;;;;;12.88;4.18;;;21.40;99.90;;;;;;4941183;28;20054;-60
2023/09/29 10:36:27;;;;;;;8.88;3.80;;;21.30;99.90;;;;;;4943818;28;20035;-60
2023/09/29 10:38:54;;;;;;;8.32;4.00;;;21.30;99.90;;;;;;4956055;28;20519;-60
2023/09/29 10:41:21;;;;;;;7.28;3.78;;;21.30;99.90;;;;;;4931562;28;20105;-60
2023/09/29 10:43:50;;;;;;;9.27;4.43;;;21.30;99.90;;;;;;4943047;28;20043;-60
2023/09/29 10:46:18;;;;;;;7.22;3.85;;;21.30;99.90;;;;;;4948962;28;20046;-59
2023/09/29 10:48:48;;;;;;;9.02;3.80;;;21.20;99.90;;;;;;4952302;28;20187;-58
2023/09/29 10:51:28;;;;;;;7.47;4.07;;;21.20;99.90;;;;;;4939161;28;20407;-58
2023/09/29 10:53:55;;;;;;;10.43;4.53;;;21.10;99.90;;;;;;4938245;28;20406;-59
2023/09/29 10:56:22;;;;;;;10.75;4.18;;;21.00;99.90;;;;;;4945996;28;20474;-58
2023/09/29 10:58:53;;;;;;;10.55;4.32;;;21.00;99.90;;;;;;4940951;28;20381;-58
2023/09/29 11:01:27;;;;;;;8.88;4.18;;;21.00;99.90;;;;;;4956269;28;20478;-59
2023/09/29 11:03:55;;;;;;;9.77;4.32;;;20.90;99.90;;;;;;4942118;28;20568;-58
2023/09/29 11:06:21;;;;;;;8.00;4.18;;;20.90;99.90;;;;;;4942553;28;20059;-60
2023/09/29 11:08:58;;;;;;;13.35;4.35;;;20.90;99.90;;;;;;4936482;28;20050;-58
2023/09/29 11:11:35;;;;;;;9.07;3.95;;;20.90;99.90;;;;;;4948938;28;20294;-59
2023/09/29 11:14:04;;;;;;;9.65;4.15;;;20.90;99.90;;;;;;4937312;28;20110;-58
2023/09/29 11:16:30;;;;;;;6.75;3.95;;;20.80;99.90;;;;;;4954586;28;20511;-60
2023/09/29 11:19:10;;;;;;;13.13;3.83;;;20.80;99.90;;;;;;4958976;28;20050;-59
2023/09/29 11:21:37;;;;;;;7.15;3.75;;;20.80;99.90;;;;;;4952921;28;20058;-58
2023/09/29 11:24:11;;;;;;;9.65;3.55;;;20.70;99.90;;;;;;4952704;28;20521;-59
2023/09/29 11:26:48;;;;;;;6.28;3.75;;;20.70;99.90;;;;;;4942159;28;20034;-59
2023/09/29 11:29:24;;;;;;;8.32;3.45;;;20.70;99.90;;;;;;4956888;28;20049;-59
2023/09/29 11:31:51;;;;;;;10.07;3.60;;;20.70;99.90;;;;;;4956427;28;20100;-58
2023/09/29 11:34:17;;;;;;;8.77;4.28;;;20.60;99.90;;;;;;4939373;28;20366;-59
2023/09/29 11:36:43;;;;;;;6.85;4.38;;;20.60;99.90;;;;;;4941465;28;20715;-59
2023/09/29 11:39:10;;;;;;;7.15;4.03;;;20.60;99.90;;;;;;4949208;28;20488;-59
2023/09/29 11:41:37;;;;;;;9.93;3.92;;;20.60;99.90;;;;;;4949194;28;20050;-59
2023/09/29 11:44:03;;;;;;;8.48;4.40;;;20.50;99.90;;;;;;4953227;28;20046;-59
2023/09/29 11:46:28;;;;;;;7.38;4.10;;;20.50;99.90;;;;;;4951187;28;20768;-58
2023/09/29 11:48:54;;;;;;;11.68;5.07;;;20.50;99.90;;;;;;4954968;28;20043;-58
2023/09/29 11:51:21;;;;;;;10.45;4.95;;;20.40;99.90;;;;;;4951576;28;20184;-59
2023/09/29 11:53:48;;;;;;;11.38;5.18;;;20.40;99.90;;;;;;4946695;28;20146;-59
2023/09/29 11:56:13;;;;;;;9.57;4.88;;;20.50;99.90;;;;;;4937167;28;20620;-59
2023/09/29 11:58:39;;;;;;;12.15;5.10;;;20.50;99.90;;;;;;4935525;28;20397;-58
2023/09/29 12:01:06;;;;;;;8.88;5.07;;;20.60;99.90;;;;;;4914683;28;20840;-58
2023/09/29 12:03:34;;;;;;;10.35;5.07;;;20.50;99.90;;;;;;4943081;28;20705;-59
2023/09/29 12:06:02;;;;;;;13.20;5.10;;;20.50;99.90;;;;;;4937574;28;20051;-59
2023/09/29 12:08:29;;;;;;;7.18;1.75;;;20.50;99.90;;;;;;4945623;28;20035;-57
2023/09/29 12:10:55;;;;;;;4.90;1.83;;;20.40;99.90;;;;;;4949901;28;20045;-57
2023/09/29 12:13:21;;;;;;;6.28;1.30;;;20.20;99.90;;;;;;4952314;28;20065;-59
2023/09/29 12:15:47;;;;;;;2.05;0.95;;;20.10;99.90;;;;;;4941004;28;20054;-59
2023/09/29 12:18:13;;;;;;;2.28;0.70;;;19.90;99.90;;;;;;4949132;28;20053;-58
2023/09/29 12:20:40;;;;;;;4.78;1.15;;;19.70;99.90;;;;;;4941842;28;20035;-58
2023/09/29 12:23:08;;;;;;;2.42;1.00;;;19.60;99.90;;;;;;4931852;28;20079;-58
2023/09/29 12:25:38;;;;;;;2.97;0.80;;;19.40;99.90;;;;;;4928191;28;20907;-60
2023/09/29 12:28:04;;;;;;;3.25;0.95;;;19.30;99.90;;;;;;4936427;28;20594;-58
2023/09/29 12:30:31;;;;;;;3.22;0.80;;;19.20;99.90;;;;;;4945589;28;20050;-59
2023/09/29 12:32:56;;;;;;;3.13;1.00;;;19.00;99.90;;;;;;4940337;28;22379;-60
2023/09/29 12:35:22;;;;;;;6.28;1.17;;;18.90;99.90;;;;;;4937340;28;20046;-58
2023/09/29 12:37:48;;;;;;;3.78;1.33;;;18.90;99.90;;;;;;4951525;28;20255;-58
2023/09/29 12:40:15;;;;;;;1.92;0.85;;;18.80;99.90;;;;;;4941907;28;20518;-60
2023/09/29 12:42:50;;;;;;;2.85;0.93;;;18.70;99.90;;;;;;4935724;28;20110;-57